Time;durP1;ratioP1;P1;durP2;ratioP2;P2;SDS_P1;SDS_P2;PMS_P1;PMS_P2;Temp;Humidity;BMP_temperature;BMP_pressure;BME280_temperature;BME280_humidity;BME280_pressure;Samples;Min_cycle;Max_cycle;Signal;HPM_P1;HPM_P2
2021/07/04 00:00:17;;;;;;;10.02;3.70;;;;;;;;;;5017102;28;20037;-58
2021/07/04 00:02:43;;;;;;;6.18;3.78;;;;;;;;;;5016961;28;20057;-59
2021/07/04 00:05:11;;;;;;;5.78;3.63;;;;;;;;;;5017845;28;20554;-58
2021/07/04 00:07:41;;;;;;;5.40;3.40;;;;;;;;;;5015752;28;20039;-58
2021/07/04 00:10:07;;;;;;;6.38;3.97;;;;;;;;;;5016863;28;20051;-59
2021/07/04 00:12:33;;;;;;;7.22;4.32;;;;;;;;;;5015708;28;20030;-59
2021/07/04 00:14:59;;;;;;;6.05;3.85;;;;;;;;;;5016583;28;20150;-59
2021/07/04 00:17:25;;;;;;;5.50;3.38;;;;;;;;;;5016858;28;20033;-59
2021/07/04 00:19:50;;;;;;;10.77;4.45;;;;;;;;;;5018431;28;20072;-60
2021/07/04 00:22:16;;;;;;;5.78;3.55;;;;;;;;;;5017187;28;20510;-60
2021/07/04 00:24:42;;;;;;;5.75;3.75;;;;;;;;;;5018771;28;20034;-59
2021/07/04 00:27:08;;;;;;;7.88;3.70;;;;;;;;;;5019970;28;20041;-59
2021/07/04 00:29:34;;;;;;;7.32;4.13;;;;;;;;;;5017674;28;20501;-59
2021/07/04 00:31:59;;;;;;;5.93;3.78;;;;;;;;;;5016709;28;20053;-58
2021/07/04 00:34:25;;;;;;;9.30;4.22;;;;;;;;;;5016135;28;20611;-58
2021/07/04 00:36:51;;;;;;;8.32;3.97;;;;;;;;;;5016176;28;20810;-58
2021/07/04 00:39:17;;;;;;;8.77;5.22;;;;;;;;;;5015412;28;20072;-58
2021/07/04 00:41:43;;;;;;;46.72;37.88;;;;;;;;;;5017444;28;20544;-58
2021/07/04 00:44:08;;;;;;;15.73;11.77;;;;;;;;;;5017399;28;20387;-59
2021/07/04 00:46:34;;;;;;;24.67;18.75;;;;;;;;;;5016479;28;20038;-57
2021/07/04 00:49:01;;;;;;;9.55;5.53;;;;;;;;;;5016235;28;20045;-58
2021/07/04 00:51:27;;;;;;;6.38;3.97;;;;;;;;;;5014861;28;20038;-59
2021/07/04 00:53:53;;;;;;;7.28;4.45;;;;;;;;;;5016747;28;20041;-59
2021/07/04 00:56:19;;;;;;;6.88;3.85;;;;;;;;;;5013123;28;20132;-59
2021/07/04 00:58:45;;;;;;;6.95;4.40;;;;;;;;;;5030807;28;20548;-59
2021/07/04 01:01:11;;;;;;;6.82;3.35;;;;;;;;;;5016909;28;20065;-58
2021/07/04 01:03:37;;;;;;;6.57;4.20;;;;;;;;;;5017008;28;20491;-59
2021/07/04 01:06:03;;;;;;;6.95;4.43;;;;;;;;;;5016518;28;20041;-59
2021/07/04 01:08:29;;;;;;;8.43;4.00;;;;;;;;;;5016748;28;20057;-59
2021/07/04 01:10:54;;;;;;;6.45;3.63;;;;;;;;;;5015987;28;20034;-59
2021/07/04 01:13:20;;;;;;;9.20;4.30;;;;;;;;;;5017703;28;20100;-59
2021/07/04 01:15:47;;;;;;;8.05;4.28;;;;;;;;;;5015423;28;20466;-56
2021/07/04 01:18:12;;;;;;;7.50;4.10;;;;;;;;;;5015872;28;20037;-59
2021/07/04 01:20:39;;;;;;;7.72;4.82;;;;;;;;;;5016986;28;20036;-60
2021/07/04 01:23:06;;;;;;;7.10;3.88;;;;;;;;;;5016916;28;20037;-60
2021/07/04 01:25:33;;;;;;;7.30;3.90;;;;;;;;;;5018795;28;20041;-58
2021/07/04 01:27:59;;;;;;;8.63;4.88;;;;;;;;;;5019458;28;20042;-59
2021/07/04 01:30:26;;;;;;;8.68;4.95;;;;;;;;;;5019820;28;20053;-60
2021/07/04 01:32:53;;;;;;;7.05;4.38;;;;;;;;;;5014226;28;20052;-58
2021/07/04 01:35:19;;;;;;;6.53;3.72;;;;;;;;;;5017198;28;20049;-58
2021/07/04 01:37:45;;;;;;;8.95;5.22;;;;;;;;;;5018657;28;20045;-60
2021/07/04 01:40:12;;;;;;;7.30;4.03;;;;;;;;;;5019260;28;20523;-57
2021/07/04 01:42:40;;;;;;;6.22;4.38;;;;;;;;;;5019295;28;20084;-59
2021/07/04 01:45:06;;;;;;;7.80;4.63;;;;;;;;;;5019531;28;20049;-57
2021/07/04 01:47:36;;;;;;;6.53;3.90;;;;;;;;;;5017940;28;20045;-59
2021/07/04 01:50:02;;;;;;;8.65;4.55;;;;;;;;;;5018716;28;20103;-59
2021/07/04 01:52:28;;;;;;;6.65;3.85;;;;;;;;;;5019212;28;20158;-59
2021/07/04 01:54:53;;;;;;;6.30;3.85;;;;;;;;;;5018295;28;20526;-59
2021/07/04 01:57:19;;;;;;;7.70;4.18;;;;;;;;;;5018290;28;20111;-61
2021/07/04 01:59:45;;;;;;;5.70;3.45;;;;;;;;;;5019309;28;20434;-58
2021/07/04 02:02:11;;;;;;;7.38;4.40;;;;;;;;;;5033184;28;20129;-59
2021/07/04 02:04:41;;;;;;;11.10;4.40;;;;;;;;;;5018310;28;20050;-59
2021/07/04 02:07:25;;;;;;;8.25;4.80;;;;;;;;;;5018291;28;20033;-59
2021/07/04 02:09:52;;;;;;;7.68;4.53;;;;;;;;;;5019915;28;20038;-59
2021/07/04 02:12:19;;;;;;;11.13;5.63;;;;;;;;;;5018871;28;20041;-58
2021/07/04 02:14:45;;;;;;;6.68;4.60;;;;;;;;;;5019856;28;20035;-58
2021/07/04 02:17:11;;;;;;;7.57;4.28;;;;;;;;;;5013184;28;20041;-59
2021/07/04 02:19:38;;;;;;;7.72;5.18;;;;;;;;;;5019327;28;20048;-57
2021/07/04 02:22:04;;;;;;;7.78;4.70;;;;;;;;;;5016287;28;20080;-57
2021/07/04 02:24:30;;;;;;;9.10;5.40;;;;;;;;;;5016479;28;20046;-57
2021/07/04 02:26:56;;;;;;;7.35;4.57;;;;;;;;;;5017908;28;20048;-59
2021/07/04 02:29:22;;;;;;;9.73;5.22;;;;;;;;;;5019057;28;20045;-58
2021/07/04 02:31:48;;;;;;;7.95;4.45;;;;;;;;;;5018738;28;20123;-59
2021/07/04 02:34:14;;;;;;;9.65;4.78;;;;;;;;;;5017365;28;20037;-58
2021/07/04 02:36:40;;;;;;;7.55;4.93;;;;;;;;;;5016215;28;20069;-57
2021/07/04 02:39:05;;;;;;;7.82;4.57;;;;;;;;;;5025192;23;20355;-60
2021/07/04 02:41:32;;;;;;;10.02;5.10;;;;;;;;;;5007759;28;20049;-57
2021/07/04 02:43:58;;;;;;;7.68;5.05;;;;;;;;;;5009342;28;20042;-59
2021/07/04 02:46:26;;;;;;;8.85;4.72;;;;;;;;;;5012696;28;20045;-58
2021/07/04 02:48:52;;;;;;;9.18;4.75;;;;;;;;;;5011409;28;20754;-58
2021/07/04 02:51:18;;;;;;;8.40;5.03;;;;;;;;;;5009969;28;20050;-58
2021/07/04 02:53:43;;;;;;;8.38;5.20;;;;;;;;;;5015959;28;20041;-58
2021/07/04 02:56:09;;;;;;;8.10;4.55;;;;;;;;;;5010112;28;20037;-58
2021/07/04 02:58:35;;;;;;;7.03;4.43;;;;;;;;;;5013562;28;20076;-58
2021/07/04 03:01:01;;;;;;;7.88;5.05;;;;;;;;;;5008933;28;20068;-59
2021/07/04 03:03:27;;;;;;;8.27;5.18;;;;;;;;;;5010428;28;20510;-58
2021/07/04 03:05:53;;;;;;;7.25;4.55;;;;;;;;;;5008300;28;20041;-61
2021/07/04 03:08:19;;;;;;;9.65;5.18;;;;;;;;;;5011393;28;20512;-58
2021/07/04 03:10:45;;;;;;;8.98;5.03;;;;;;;;;;5003912;28;20056;-59
2021/07/04 03:13:10;;;;;;;7.70;4.93;;;;;;;;;;5011225;28;20080;-58
2021/07/04 03:15:36;;;;;;;9.25;6.05;;;;;;;;;;5009410;28;20052;-58
2021/07/04 03:18:02;;;;;;;8.63;4.97;;;;;;;;;;5014106;28;20103;-58
2021/07/04 03:20:28;;;;;;;9.88;5.30;;;;;;;;;;5011072;28;20068;-57
2021/07/04 03:22:54;;;;;;;7.75;4.50;;;;;;;;;;5014819;28;20049;-59
2021/07/04 03:25:20;;;;;;;9.25;5.03;;;;;;;;;;5011167;28;20776;-59
2021/07/04 03:27:46;;;;;;;10.10;5.40;;;;;;;;;;5027214;28;20045;-58
2021/07/04 03:30:17;;;;;;;7.38;4.90;;;;;;;;;;5013019;28;20053;-58
2021/07/04 03:32:43;;;;;;;7.88;4.90;;;;;;;;;;5013443;28;20077;-58
2021/07/04 03:35:10;;;;;;;13.48;5.32;;;;;;;;;;5013205;28;20136;-57
2021/07/04 03:37:36;;;;;;;10.63;5.20;;;;;;;;;;5012184;28;20038;-56
2021/07/04 03:40:04;;;;;;;10.38;6.25;;;;;;;;;;5011689;28;20053;-57
2021/07/04 03:42:30;;;;;;;11.00;5.90;;;;;;;;;;5010016;28;20490;-56
2021/07/04 03:44:55;;;;;;;9.15;5.82;;;;;;;;;;5012096;28;20046;-54
2021/07/04 03:47:25;;;;;;;13.00;5.80;;;;;;;;;;5010529;28;20048;-56
2021/07/04 03:49:51;;;;;;;11.23;5.32;;;;;;;;;;5012560;28;20083;-56
2021/07/04 03:52:17;;;;;;;8.88;5.43;;;;;;;;;;5012268;28;20037;-57
2021/07/04 03:54:42;;;;;;;10.90;6.10;;;;;;;;;;5012498;28;20665;-56
2021/07/04 03:57:24;;;;;;;11.38;4.97;;;;;;;;;;5013130;28;20042;-56
2021/07/04 03:59:50;;;;;;;11.07;5.90;;;;;;;;;;5013833;28;20048;-56
2021/07/04 04:02:16;;;;;;;10.15;5.57;;;;;;;;;;5013912;28;20072;-56
2021/07/04 04:04:41;;;;;;;11.05;5.47;;;;;;;;;;5011041;28;20140;-56
2021/07/04 04:07:07;;;;;;;10.15;5.70;;;;;;;;;;5011265;28;20033;-58
2021/07/04 04:09:33;;;;;;;10.95;6.57;;;;;;;;;;5011672;28;20066;-57
2021/07/04 04:11:59;;;;;;;11.52;5.78;;;;;;;;;;5007129;28;20182;-57
2021/07/04 04:14:25;;;;;;;8.85;5.80;;;;;;;;;;5010429;28;20022;-59
2021/07/04 04:16:50;;;;;;;9.32;5.85;;;;;;;;;;5010848;28;20183;-58
2021/07/04 04:19:16;;;;;;;15.68;6.18;;;;;;;;;;5009920;28;20048;-57
2021/07/04 04:21:42;;;;;;;9.07;5.72;;;;;;;;;;5009342;28;20589;-58
2021/07/04 04:24:08;;;;;;;8.13;5.20;;;;;;;;;;5010597;28;20038;-57
2021/07/04 04:26:34;;;;;;;9.65;5.60;;;;;;;;;;5008813;28;20060;-58
2021/07/04 04:28:59;;;;;;;10.45;5.63;;;;;;;;;;5011252;28;20133;-58
2021/07/04 04:31:25;;;;;;;8.68;5.30;;;;;;;;;;5009257;28;20042;-58
2021/07/04 04:33:51;;;;;;;10.60;6.20;;;;;;;;;;5009718;28;20087;-57
2021/07/04 04:36:17;;;;;;;9.57;5.80;;;;;;;;;;5009088;28;20128;-58
2021/07/04 04:38:43;;;;;;;10.68;6.30;;;;;;;;;;5010661;28;20061;-57
2021/07/04 04:41:08;;;;;;;8.88;5.35;;;;;;;;;;5008143;28;20426;-58
2021/07/04 04:43:34;;;;;;;13.70;5.80;;;;;;;;;;5010533;28;20045;-57
2021/07/04 04:46:00;;;;;;;9.40;6.10;;;;;;;;;;5010894;28;20030;-56
2021/07/04 04:48:26;;;;;;;8.75;5.85;;;;;;;;;;5010176;28;20045;-57
2021/07/04 04:50:52;;;;;;;9.27;5.95;;;;;;;;;;5012993;28;20038;-57
2021/07/04 04:53:18;;;;;;;8.85;5.47;;;;;;;;;;5011719;28;20070;-56
2021/07/04 04:55:43;;;;;;;10.45;5.90;;;;;;;;;;5009998;28;20086;-57
2021/07/04 04:58:09;;;;;;;11.30;6.60;;;;;;;;;;5012006;28;20064;-55
2021/07/04 05:00:35;;;;;;;12.93;5.82;;;;;;;;;;5014871;28;20077;-56
2021/07/04 05:03:05;;;;;;;10.27;5.65;;;;;;;;;;5013886;28;20581;-53
2021/07/04 05:05:32;;;;;;;10.32;6.03;;;;;;;;;;5013874;28;20129;-53
2021/07/04 05:07:58;;;;;;;12.32;6.20;;;;;;;;;;5015027;28;20436;-56
2021/07/04 05:10:24;;;;;;;13.63;5.95;;;;;;;;;;5012721;28;20041;-54
2021/07/04 05:12:50;;;;;;;9.38;5.95;;;;;;;;;;5014807;28;20044;-56
2021/07/04 05:15:15;;;;;;;10.65;6.35;;;;;;;;;;5014017;28;20540;-56
2021/07/04 05:17:41;;;;;;;9.75;6.35;;;;;;;;;;5012223;28;20034;-53
2021/07/04 05:20:08;;;;;;;9.02;5.88;;;;;;;;;;5013890;28;20034;-56
2021/07/04 05:22:34;;;;;;;8.18;5.32;;;;;;;;;;5014321;28;20118;-54
2021/07/04 05:25:00;;;;;;;9.38;6.00;;;;;;;;;;5012875;28;20045;-54
2021/07/04 05:27:26;;;;;;;10.23;6.38;;;;;;;;;;5015698;28;20398;-56
2021/07/04 05:29:52;;;;;;;10.55;6.15;;;;;;;;;;5015971;28;20038;-57
2021/07/04 05:32:18;;;;;;;9.85;5.82;;;;;;;;;;5011616;28;20480;-57
2021/07/04 05:34:43;;;;;;;11.45;6.07;;;;;;;;;;5016111;28;20855;-56
2021/07/04 05:37:09;;;;;;;13.77;6.30;;;;;;;;;;5015176;28;20045;-55
2021/07/04 05:39:35;;;;;;;10.25;6.03;;;;;;;;;;5013958;28;20068;-56
2021/07/04 05:42:01;;;;;;;9.20;5.85;;;;;;;;;;5017100;28;20157;-55
2021/07/04 05:44:27;;;;;;;13.75;6.18;;;;;;;;;;5014100;28;20033;-56
2021/07/04 05:46:53;;;;;;;11.55;6.93;;;;;;;;;;5015217;28;20048;-60
2021/07/04 05:49:19;;;;;;;10.90;6.60;;;;;;;;;;5013256;28;20817;-57
2021/07/04 05:51:45;;;;;;;12.55;6.60;;;;;;;;;;5016016;28;20108;-55
2021/07/04 05:54:11;;;;;;;16.50;6.53;;;;;;;;;;5014722;28;20057;-57
2021/07/04 05:56:37;;;;;;;12.18;6.05;;;;;;;;;;5011421;28;20034;-53
2021/07/04 05:59:03;;;;;;;11.05;6.80;;;;;;;;;;5015272;28;20038;-56
2021/07/04 06:01:29;;;;;;;10.27;6.45;;;;;;;;;;5012561;28;20061;-56
2021/07/04 06:03:55;;;;;;;11.65;6.65;;;;;;;;;;5025649;28;20069;-54
2021/07/04 06:06:21;;;;;;;9.57;6.40;;;;;;;;;;5012571;28;20556;-55
2021/07/04 06:08:47;;;;;;;10.25;6.18;;;;;;;;;;5013853;28;20076;-56
2021/07/04 06:11:12;;;;;;;13.13;7.43;;;;;;;;;;5014476;28;20053;-56
2021/07/04 06:13:38;;;;;;;9.50;6.45;;;;;;;;;;5009833;28;20132;-55
2021/07/04 06:16:04;;;;;;;10.70;6.22;;;;;;;;;;5010641;28;20088;-55
2021/07/04 06:18:30;;;;;;;11.05;6.40;;;;;;;;;;5013452;28;20041;-57
2021/07/04 06:20:56;;;;;;;12.13;6.30;;;;;;;;;;5012993;28;20034;-56
2021/07/04 06:23:22;;;;;;;9.68;6.50;;;;;;;;;;5026362;28;20406;-56
2021/07/04 06:25:47;;;;;;;12.02;6.63;;;;;;;;;;5012466;28;20052;-56
2021/07/04 06:28:13;;;;;;;11.13;6.60;;;;;;;;;;5012245;28;20064;-57
2021/07/04 06:30:40;;;;;;;10.20;6.20;;;;;;;;;;5011813;28;20045;-52
2021/07/04 06:33:06;;;;;;;9.90;5.68;;;;;;;;;;5011394;28;20037;-56
2021/07/04 06:35:31;;;;;;;9.18;6.00;;;;;;;;;;5011290;28;20041;-54
2021/07/04 06:37:57;;;;;;;10.80;6.28;;;;;;;;;;5011693;28;20038;-53
2021/07/04 06:40:23;;;;;;;9.65;6.10;;;;;;;;;;5012393;28;20079;-56
2021/07/04 06:42:49;;;;;;;9.52;5.95;;;;;;;;;;5013485;28;20049;-56
2021/07/04 06:45:15;;;;;;;9.80;6.03;;;;;;;;;;5026616;28;20048;-57
2021/07/04 06:47:42;;;;;;;11.57;6.40;;;;;;;;;;5011452;28;20053;-56
2021/07/04 06:50:08;;;;;;;10.38;6.45;;;;;;;;;;5012363;28;20521;-54
2021/07/04 06:52:34;;;;;;;10.90;5.88;;;;;;;;;;5010840;28;20042;-55
2021/07/04 06:55:00;;;;;;;10.73;6.20;;;;;;;;;;5011190;28;20505;-57
2021/07/04 06:57:29;;;;;;;12.60;6.78;;;;;;;;;;5014236;28;20076;-56
2021/07/04 06:59:59;;;;;;;12.13;6.50;;;;;;;;;;5030004;28;20065;-57
2021/07/04 07:02:26;;;;;;;10.60;6.38;;;;;;;;;;5014085;28;20084;-58
2021/07/04 07:04:52;;;;;;;10.43;6.57;;;;;;;;;;5013835;28;20128;-58
2021/07/04 07:07:18;;;;;;;12.48;6.20;;;;;;;;;;5013469;28;20505;-57
2021/07/04 07:09:44;;;;;;;13.60;6.45;;;;;;;;;;5014881;28;20048;-57
2021/07/04 07:12:10;;;;;;;14.40;6.68;;;;;;;;;;5012940;28;20164;-57
2021/07/04 07:14:36;;;;;;;10.77;6.68;;;;;;;;;;5013607;28;20553;-54
2021/07/04 07:17:02;;;;;;;12.73;6.80;;;;;;;;;;5013793;28;20036;-55
2021/07/04 07:19:28;;;;;;;14.02;7.47;;;;;;;;;;5013383;28;20601;-55
2021/07/04 07:21:54;;;;;;;10.70;6.70;;;;;;;;;;5014412;28;20134;-56
2021/07/04 07:24:20;;;;;;;17.27;8.10;;;;;;;;;;5013949;28;20136;-57
2021/07/04 07:26:46;;;;;;;13.93;8.55;;;;;;;;;;5016444;28;20165;-57
2021/07/04 07:29:12;;;;;;;15.27;7.32;;;;;;;;;;5013673;28;20076;-56
2021/07/04 07:31:38;;;;;;;11.63;6.78;;;;;;;;;;5012278;28;20041;-56
2021/07/04 07:34:04;;;;;;;13.48;6.65;;;;;;;;;;5014206;28;20045;-55
2021/07/04 07:36:30;;;;;;;11.68;7.15;;;;;;;;;;5014331;28;20045;-54
2021/07/04 07:38:56;;;;;;;10.50;6.35;;;;;;;;;;5014680;28;20038;-56
2021/07/04 07:41:22;;;;;;;10.82;6.20;;;;;;;;;;5015636;28;20061;-56
2021/07/04 07:43:48;;;;;;;15.40;7.40;;;;;;;;;;5016544;28;20042;-57
2021/07/04 07:46:14;;;;;;;14.32;7.68;;;;;;;;;;5014336;28;20495;-56
2021/07/04 07:48:40;;;;;;;13.02;7.70;;;;;;;;;;5014153;28;20037;-57
2021/07/04 07:51:06;;;;;;;15.63;7.40;;;;;;;;;;5015283;28;20033;-56
2021/07/04 07:53:32;;;;;;;15.52;7.50;;;;;;;;;;5014035;28;20167;-56
2021/07/04 07:55:58;;;;;;;17.63;7.40;;;;;;;;;;5013684;28;20037;-55
2021/07/04 07:58:24;;;;;;;15.95;8.35;;;;;;;;;;5014715;28;20080;-56
2021/07/04 08:00:50;;;;;;;14.57;7.07;;;;;;;;;;5017154;28;20064;-56
2021/07/04 08:03:15;;;;;;;14.27;7.18;;;;;;;;;;5011695;28;20161;-56
2021/07/04 08:05:42;;;;;;;11.57;6.60;;;;;;;;;;5011540;28;20041;-55
2021/07/04 08:08:08;;;;;;;12.63;6.65;;;;;;;;;;5013377;28;20494;-54
2021/07/04 08:10:34;;;;;;;14.30;7.43;;;;;;;;;;5011218;28;20045;-56
2021/07/04 08:13:00;;;;;;;10.88;6.30;;;;;;;;;;5011727;28;20257;-56
2021/07/04 08:15:26;;;;;;;12.05;6.88;;;;;;;;;;5009835;28;20114;-55
2021/07/04 08:17:52;;;;;;;10.68;6.38;;;;;;;;;;5015277;28;20045;-55
2021/07/04 08:20:18;;;;;;;10.50;6.28;;;;;;;;;;5012946;28;20033;-55
2021/07/04 08:22:44;;;;;;;9.95;6.10;;;;;;;;;;5014521;28;20045;-55
2021/07/04 08:25:11;;;;;;;8.88;5.30;;;;;;;;;;5014297;28;20137;-58
2021/07/04 08:27:37;;;;;;;10.32;5.50;;;;;;;;;;5010451;28;20485;-55
2021/07/04 08:30:04;;;;;;;9.80;5.53;;;;;;;;;;5013244;28;20539;-54
2021/07/04 08:32:29;;;;;;;10.93;5.10;;;;;;;;;;5011999;28;20061;-54
2021/07/04 08:34:55;;;;;;;8.30;4.80;;;;;;;;;;5027290;28;20214;-55
2021/07/04 08:37:21;;;;;;;7.65;4.70;;;;;;;;;;5012831;28;20041;-56
2021/07/04 08:39:47;;;;;;;10.90;5.10;;;;;;;;;;5014381;28;20060;-56
2021/07/04 08:42:13;;;;;;;9.77;4.10;;;;;;;;;;5014748;28;20057;-56
2021/07/04 08:44:46;;;;;;;8.52;4.68;;;;;;;;;;5014214;28;20037;-56
2021/07/04 08:47:12;;;;;;;6.82;4.20;;;;;;;;;;5014494;28;20165;-57
2021/07/04 08:49:38;;;;;;;7.68;4.30;;;;;;;;;;5013410;28;20685;-56
2021/07/04 08:52:04;;;;;;;9.07;4.38;;;;;;;;;;5013666;28;20045;-56
2021/07/04 08:54:29;;;;;;;8.80;4.60;;;;;;;;;;5013910;28;20526;-56
2021/07/04 08:56:55;;;;;;;9.35;4.70;;;;;;;;;;5027510;28;20080;-56
2021/07/04 08:59:21;;;;;;;7.55;4.18;;;;;;;;;;5012943;28;20037;-56
2021/07/04 09:01:48;;;;;;;7.43;4.13;;;;;;;;;;5014812;28;20076;-56
2021/07/04 09:04:20;;;;;;;8.27;4.70;;;;;;;;;;5016166;28;20041;-56
2021/07/04 09:06:52;;;;;;;7.57;4.13;;;;;;;;;;5016664;28;20049;-56
2021/07/04 09:09:18;;;;;;;8.35;4.10;;;;;;;;;;5014531;28;20045;-55
2021/07/04 09:11:54;;;;;;;7.28;3.75;;;;;;;;;;5013153;28;20431;-56
2021/07/04 09:14:31;;;;;;;8.93;4.10;;;;;;;;;;5014120;28;20046;-56
2021/07/04 09:16:57;;;;;;;6.78;3.97;;;;;;;;;;5015243;28;20044;-56
2021/07/04 09:19:23;;;;;;;7.97;4.57;;;;;;;;;;5016350;28;20037;-56
2021/07/04 09:21:56;;;;;;;7.43;4.20;;;;;;;;;;5015594;28;20100;-55
2021/07/04 09:24:29;;;;;;;7.78;4.22;;;;;;;;;;5013727;28;20131;-54
2021/07/04 09:26:55;;;;;;;7.18;4.13;;;;;;;;;;5015905;28;20045;-54
2021/07/04 09:29:40;;;;;;;7.75;4.25;;;;;;;;;;5012778;28;20046;-57
2021/07/04 09:32:09;;;;;;;8.85;4.05;;;;;;;;;;5014233;28;20036;-55
2021/07/04 09:34:35;;;;;;;7.35;3.90;;;;;;;;;;5010884;28;20056;-56
2021/07/04 09:37:01;;;;;;;8.88;5.00;;;;;;;;;;5013878;28;20049;-55
2021/07/04 09:39:27;;;;;;;7.40;4.63;;;;;;;;;;5012261;28;20057;-56
2021/07/04 09:42:03;;;;;;;10.07;5.32;;;;;;;;;;5014903;28;20058;-57
2021/07/04 09:44:29;;;;;;;10.00;5.40;;;;;;;;;;5013552;28;20041;-57
2021/07/04 09:47:12;;;;;;;9.18;5.32;;;;;;;;;;5016749;28;20482;-56
2021/07/04 09:49:38;;;;;;;8.75;5.13;;;;;;;;;;5012413;28;20068;-61
2021/07/04 09:52:11;;;;;;;8.30;4.85;;;;;;;;;;5013646;28;20132;-61
2021/07/04 09:54:37;;;;;;;9.30;4.93;;;;;;;;;;5011545;28;20038;-62
2021/07/04 09:57:05;;;;;;;8.90;5.45;;;;;;;;;;5011592;28;20038;-63
2021/07/04 09:59:32;;;;;;;9.93;5.90;;;;;;;;;;5014215;28;20099;-63
2021/07/04 10:01:59;;;;;;;11.23;5.32;;;;;;;;;;5013893;28;20132;-64
2021/07/04 10:04:25;;;;;;;9.40;5.40;;;;;;;;;;5013078;28;20037;-64
2021/07/04 10:06:52;;;;;;;8.90;5.28;;;;;;;;;;5015899;28;21817;-64
2021/07/04 10:09:19;;;;;;;8.68;5.70;;;;;;;;;;5015409;28;20578;-64
2021/07/04 10:11:45;;;;;;;10.00;5.30;;;;;;;;;;5012273;28;20052;-62
2021/07/04 10:14:11;;;;;;;9.45;5.53;;;;;;;;;;5009248;28;20356;-64
2021/07/04 10:16:37;;;;;;;8.85;5.47;;;;;;;;;;5012389;28;20046;-62
2021/07/04 10:19:03;;;;;;;8.57;5.15;;;;;;;;;;5011906;28;20061;-64
2021/07/04 10:21:30;;;;;;;9.57;5.97;;;;;;;;;;5010965;28;20116;-61
2021/07/04 10:23:57;;;;;;;9.15;5.65;;;;;;;;;;5013190;28;20383;-62
2021/07/04 10:26:27;;;;;;;9.52;5.85;;;;;;;;;;5011387;28;20037;-64
2021/07/04 10:28:57;;;;;;;9.82;5.57;;;;;;;;;;5012361;28;20033;-63
2021/07/04 10:31:23;;;;;;;11.38;5.95;;;;;;;;;;5010774;28;20724;-62
2021/07/04 10:34:04;;;;;;;9.93;5.53;;;;;;;;;;5024801;28;20053;-62
2021/07/04 10:36:32;;;;;;;10.82;6.20;;;;;;;;;;5024902;28;21005;-62
2021/07/04 10:38:59;;;;;;;11.95;5.95;;;;;;;;;;5010636;28;20090;-62
2021/07/04 10:41:27;;;;;;;10.65;6.53;;;;;;;;;;5010858;28;20060;-62
2021/07/04 10:43:57;;;;;;;10.63;6.38;;;;;;;;;;5011642;28;20418;-62
2021/07/04 10:46:42;;;;;;;10.60;6.15;;;;;;;;;;5009975;28;20099;-62
2021/07/04 10:49:11;;;;;;;11.90;6.35;;;;;;;;;;5010105;28;20581;-61
2021/07/04 10:51:55;;;;;;;12.98;6.85;;;;;;;;;;5011113;28;20489;-62
2021/07/04 10:54:50;;;;;;;12.63;6.75;;;;;;;;;;5009221;28;20052;-62
2021/07/04 10:57:21;;;;;;;11.35;6.68;;;;;;;;;;5008929;28;20041;-62
2021/07/04 10:59:59;;;;;;;10.85;6.45;;;;;;;;;;5009737;28;20084;-62
2021/07/04 11:02:44;;;;;;;10.77;6.93;;;;;;;;;;5010364;28;20072;-62
2021/07/04 11:05:17;;;;;;;9.80;6.25;;;;;;;;;;5010390;28;20406;-61
2021/07/04 11:07:52;;;;;;;11.45;7.22;;;;;;;;;;5011686;28;20045;-60
2021/07/04 11:10:20;;;;;;;13.57;7.35;;;;;;;;;;5012129;28;20037;-61
2021/07/04 11:12:46;;;;;;;12.90;7.72;;;;;;;;;;5010238;28;20456;-60
2021/07/04 11:15:12;;;;;;;15.30;7.60;;;;;;;;;;5010449;28;20042;-60
2021/07/04 11:17:57;;;;;;;13.77;7.47;;;;;;;;;;5006843;28;20054;-59
2021/07/04 11:20:23;;;;;;;14.73;8.40;;;;;;;;;;5010349;28;20513;-59
2021/07/04 11:22:59;;;;;;;12.95;8.05;;;;;;;;;;5009683;28;20104;-60
2021/07/04 11:25:36;;;;;;;14.60;8.73;;;;;;;;;;5010846;28;20570;-60
2021/07/04 11:28:20;;;;;;;12.38;7.88;;;;;;;;;;5010327;28;20037;-61
2021/07/04 11:30:47;;;;;;;12.63;8.27;;;;;;;;;;5009952;28;20416;-61
2021/07/04 11:36:09;;;;;;;13.95;8.13;;;;;;;;;;5000219;28;20457;-61
2021/07/04 11:38:37;;;;;;;15.88;8.90;;;;;;;;;;5007954;28;20079;-59
2021/07/04 11:41:04;;;;;;;18.50;9.15;;;;;;;;;;5011721;28;20045;-62
2021/07/04 11:43:30;;;;;;;13.00;8.35;;;;;;;;;;5009741;28;20049;-61
2021/07/04 11:45:59;;;;;;;15.25;8.27;;;;;;;;;;5010213;28;20111;-61
2021/07/04 11:48:45;;;;;;;13.48;7.65;;;;;;;;;;5007841;28;20064;-61
2021/07/04 11:51:31;;;;;;;12.35;7.35;;;;;;;;;;5011013;28;20045;-61
2021/07/04 11:54:02;;;;;;;15.18;8.68;;;;;;;;;;5009371;28;20478;-61
2021/07/04 11:56:28;;;;;;;13.23;7.90;;;;;;;;;;5009494;28;20096;-60
2021/07/04 11:59:04;;;;;;;14.82;7.72;;;;;;;;;;5008160;28;20049;-59
2021/07/04 12:01:30;;;;;;;14.60;8.80;;;;;;;;;;5009513;28;20091;-63
2021/07/04 12:03:56;;;;;;;14.15;8.95;;;;;;;;;;5012270;28;20042;-65
2021/07/04 12:06:23;;;;;;;17.05;8.77;;;;;;;;;;5010869;28;20042;-64
2021/07/04 12:08:58;;;;;;;15.52;8.20;;;;;;;;;;5014083;28;20645;-63
2021/07/04 12:11:42;;;;;;;13.88;7.82;;;;;;;;;;5014811;28;20041;-64
2021/07/04 12:14:26;;;;;;;12.15;7.85;;;;;;;;;;5014097;28;20045;-63
2021/07/04 12:16:55;;;;;;;13.05;7.65;;;;;;;;;;5011208;28;20477;-64
2021/07/04 12:19:32;;;;;;;14.30;7.75;;;;;;;;;;5010577;28;20038;-63
2021/07/04 12:21:59;;;;;;;11.40;6.93;;;;;;;;;;5018568;28;20053;-64
2021/07/04 12:24:36;;;;;;;13.13;7.05;;;;;;;;;;5032416;28;20033;-64
2021/07/04 12:27:02;;;;;;;14.35;7.50;;;;;;;;;;5017370;28;20044;-64
2021/07/04 12:29:28;;;;;;;12.90;7.15;;;;;;;;;;5029819;28;20124;-64
2021/07/04 12:32:01;;;;;;;10.20;6.65;;;;;;;;;;5012872;28;20117;-63
2021/07/04 12:34:27;;;;;;;11.63;6.68;;;;;;;;;;5015251;28;20029;-63
2021/07/04 12:36:53;;;;;;;10.98;6.35;;;;;;;;;;5018011;28;20080;-63
2021/07/04 12:39:19;;;;;;;12.40;6.97;;;;;;;;;;5013011;28;20083;-63
2021/07/04 12:41:45;;;;;;;11.23;6.63;;;;;;;;;;5015304;28;20042;-61
2021/07/04 12:44:12;;;;;;;10.23;6.50;;;;;;;;;;5023035;28;20049;-62
2021/07/04 12:46:38;;;;;;;8.70;5.47;;;;;;;;;;5016704;28;21717;-63
2021/07/04 12:49:03;;;;;;;9.93;5.22;;;;;;;;;;5018065;28;20041;-63
2021/07/04 12:51:33;;;;;;;9.23;5.70;;;;;;;;;;5011660;28;20040;-63
2021/07/04 12:53:59;;;;;;;9.30;5.47;;;;;;;;;;5011716;28;20037;-64
2021/07/04 12:56:24;;;;;;;8.57;4.93;;;;;;;;;;5025936;28;20403;-65
2021/07/04 12:58:54;;;;;;;9.77;5.07;;;;;;;;;;5011093;28;20042;-64
2021/07/04 13:01:20;;;;;;;9.93;5.07;;;;;;;;;;5022812;28;20045;-64
2021/07/04 13:03:46;;;;;;;8.55;5.15;;;;;;;;;;5010451;28;20038;-64
2021/07/04 13:06:31;;;;;;;8.88;5.20;;;;;;;;;;5011363;28;20402;-64
2021/07/04 13:08:57;;;;;;;8.73;4.57;;;;;;;;;;5011891;28;20036;-64
2021/07/04 13:11:23;;;;;;;7.65;4.50;;;;;;;;;;5011425;28;20589;-64
2021/07/04 13:13:58;;;;;;;8.48;4.78;;;;;;;;;;5010415;28;20034;-64
2021/07/04 13:16:24;;;;;;;9.82;5.45;;;;;;;;;;5011777;28;20041;-64
2021/07/04 13:18:50;;;;;;;8.90;5.03;;;;;;;;;;5012155;28;20041;-64
2021/07/04 13:21:32;;;;;;;9.68;4.65;;;;;;;;;;5015596;28;20090;-63
2021/07/04 13:24:13;;;;;;;9.35;4.82;;;;;;;;;;5016868;28;20048;-63
2021/07/04 13:26:39;;;;;;;8.50;5.05;;;;;;;;;;5017039;28;20750;-64
2021/07/04 13:29:14;;;;;;;9.10;4.82;;;;;;;;;;5028574;28;20038;-62
2021/07/04 13:31:40;;;;;;;9.52;5.07;;;;;;;;;;5012878;28;20046;-63
2021/07/04 13:34:19;;;;;;;9.68;5.43;;;;;;;;;;5013776;28;21019;-63
2021/07/04 13:36:55;;;;;;;8.90;5.25;;;;;;;;;;5013412;28;20041;-63
2021/07/04 13:39:22;;;;;;;9.75;5.55;;;;;;;;;;5012123;28;20049;-63
2021/07/04 13:41:48;;;;;;;12.23;6.05;;;;;;;;;;5013050;28;20046;-62
2021/07/04 13:44:14;;;;;;;10.52;6.15;;;;;;;;;;5012967;28;20057;-62
2021/07/04 13:46:40;;;;;;;9.93;5.35;;;;;;;;;;5016219;28;20048;-63
2021/07/04 13:49:06;;;;;;;9.10;5.57;;;;;;;;;;5013208;28;20057;-63
2021/07/04 13:51:31;;;;;;;10.38;6.15;;;;;;;;;;5012298;28;21663;-63
2021/07/04 13:53:57;;;;;;;10.95;6.25;;;;;;;;;;5012499;28;20073;-62
2021/07/04 13:56:23;;;;;;;10.02;5.88;;;;;;;;;;5013441;28;20041;-63
2021/07/04 13:58:49;;;;;;;10.73;5.60;;;;;;;;;;5012096;28;20045;-64
2021/07/04 14:01:15;;;;;;;10.75;6.50;;;;;;;;;;5011613;28;20087;-63
2021/07/04 14:03:41;;;;;;;13.13;5.75;;;;;;;;;;5012780;28;20179;-62
2021/07/04 14:06:06;;;;;;;12.10;7.13;;;;;;;;;;5016035;28;20073;-62
2021/07/04 14:08:32;;;;;;;12.23;6.70;;;;;;;;;;5011224;28;20072;-65
2021/07/04 14:10:58;;;;;;;11.73;7.10;;;;;;;;;;5012780;28;20046;-63
2021/07/04 14:13:24;;;;;;;10.63;6.95;;;;;;;;;;5013261;28;20044;-63
2021/07/04 14:15:50;;;;;;;10.20;6.85;;;;;;;;;;5014315;28;20056;-64
2021/07/04 14:18:16;;;;;;;11.63;6.75;;;;;;;;;;5012835;28;20038;-64
2021/07/04 14:20:42;;;;;;;12.93;7.47;;;;;;;;;;5011997;28;22029;-65
2021/07/04 14:23:08;;;;;;;10.75;7.28;;;;;;;;;;5015362;28;20185;-64
2021/07/04 14:25:34;;;;;;;13.48;7.38;;;;;;;;;;5016211;28;20057;-65
2021/07/04 14:28:01;;;;;;;13.57;8.07;;;;;;;;;;5017786;28;20045;-65
2021/07/04 14:30:28;;;;;;;13.35;8.05;;;;;;;;;;5009637;28;20088;-65
2021/07/04 14:32:54;;;;;;;12.68;7.93;;;;;;;;;;5015409;28;20552;-64
2021/07/04 14:35:21;;;;;;;15.82;9.48;;;;;;;;;;5019078;28;20038;-65
2021/07/04 14:37:48;;;;;;;12.65;8.32;;;;;;;;;;5031334;28;20045;-65
2021/07/04 14:40:15;;;;;;;12.80;8.77;;;;;;;;;;5027121;28;20068;-64